sensor_id;sensor_type;location;lat;lon;timestamp;P1;durP1;ratioP1;P2;durP2;ratioP2
35877;SDS011;21982;49.804;24.072;2023-09-18T00:01:47;17.02;;;9.63;;
35877;SDS011;21982;49.804;24.072;2023-09-18T00:04:13;14.48;;;9.50;;
35877;SDS011;21982;49.804;24.072;2023-09-18T00:06:38;15.60;;;9.68;;
35877;SDS011;21982;49.804;24.072;2023-09-18T00:09:04;18.33;;;10.18;;
35877;SDS011;21982;49.804;24.072;2023-09-18T00:11:36;16.67;;;9.82;;
35877;SDS011;21982;49.804;24.072;2023-09-18T00:14:01;20.00;;;10.10;;
35877;SDS011;21982;49.804;24.072;2023-09-18T00:16:28;17.50;;;9.80;;
35877;SDS011;21982;49.804;24.072;2023-09-18T00:18:53;16.70;;;9.63;;
35877;SDS011;21982;49.804;24.072;2023-09-18T00:21:19;15.93;;;9.82;;
35877;SDS011;21982;49.804;24.072;2023-09-18T00:23:44;17.23;;;9.88;;
35877;SDS011;21982;49.804;24.072;2023-09-18T00:26:11;14.55;;;9.88;;
35877;SDS011;21982;49.804;24.072;2023-09-18T00:28:36;16.13;;;9.80;;
35877;SDS011;21982;49.804;24.072;2023-09-18T00:31:02;16.70;;;9.43;;
35877;SDS011;21982;49.804;24.072;2023-09-18T00:33:27;18.05;;;9.63;;
35877;SDS011;21982;49.804;24.072;2023-09-18T00:35:53;15.13;;;9.82;;
35877;SDS011;21982;49.804;24.072;2023-09-18T00:38:19;15.65;;;10.55;;
35877;SDS011;21982;49.804;24.072;2023-09-18T00:40:47;16.38;;;10.05;;
35877;SDS011;21982;49.804;24.072;2023-09-18T00:43:12;16.98;;;9.75;;
35877;SDS011;21982;49.804;24.072;2023-09-18T00:45:44;14.57;;;9.57;;
35877;SDS011;21982;49.804;24.072;2023-09-18T00:48:12;17.42;;;9.75;;
35877;SDS011;21982;49.804;24.072;2023-09-18T00:50:39;20.75;;;9.63;;
35877;SDS011;21982;49.804;24.072;2023-09-18T00:53:07;15.25;;;9.15;;
35877;SDS011;21982;49.804;24.072;2023-09-18T00:55:33;18.45;;;10.95;;
35877;SDS011;21982;49.804;24.072;2023-09-18T00:58:01;17.00;;;9.90;;
35877;SDS011;21982;49.804;24.072;2023-09-18T01:00:26;20.20;;;11.10;;
35877;SDS011;21982;49.804;24.072;2023-09-18T01:02:52;18.85;;;10.27;;
35877;SDS011;21982;49.804;24.072;2023-09-18T01:05:17;16.55;;;10.05;;
35877;SDS011;21982;49.804;24.072;2023-09-18T01:07:45;17.80;;;10.38;;
35877;SDS011;21982;49.804;24.072;2023-09-18T01:10:11;15.18;;;9.25;;
35877;SDS011;21982;49.804;24.072;2023-09-18T01:15:39;16.08;;;9.55;;
35877;SDS011;21982;49.804;24.072;2023-09-18T01:18:10;16.65;;;10.27;;
35877;SDS011;21982;49.804;24.072;2023-09-18T01:20:35;17.27;;;10.20;;
35877;SDS011;21982;49.804;24.072;2023-09-18T01:23:01;15.68;;;10.30;;
35877;SDS011;21982;49.804;24.072;2023-09-18T01:25:26;15.32;;;9.50;;
35877;SDS011;21982;49.804;24.072;2023-09-18T01:27:51;20.33;;;10.45;;
35877;SDS011;21982;49.804;24.072;2023-09-18T01:30:17;13.65;;;8.75;;
35877;SDS011;21982;49.804;24.072;2023-09-18T01:32:43;15.40;;;9.65;;
35877;SDS011;21982;49.804;24.072;2023-09-18T01:35:10;19.23;;;9.70;;
35877;SDS011;21982;49.804;24.072;2023-09-18T01:37:37;18.52;;;10.52;;
35877;SDS011;21982;49.804;24.072;2023-09-18T01:40:04;16.35;;;10.43;;
35877;SDS011;21982;49.804;24.072;2023-09-18T01:42:31;17.15;;;11.05;;
35877;SDS011;21982;49.804;24.072;2023-09-18T01:44:57;16.08;;;9.73;;
35877;SDS011;21982;49.804;24.072;2023-09-18T01:47:23;17.52;;;10.55;;
35877;SDS011;21982;49.804;24.072;2023-09-18T01:49:48;17.35;;;10.63;;
35877;SDS011;21982;49.804;24.072;2023-09-18T01:52:14;16.65;;;10.18;;
35877;SDS011;21982;49.804;24.072;2023-09-18T01:54:40;17.90;;;10.63;;
35877;SDS011;21982;49.804;24.072;2023-09-18T01:57:05;19.73;;;11.40;;
35877;SDS011;21982;49.804;24.072;2023-09-18T01:59:32;19.05;;;10.35;;
35877;SDS011;21982;49.804;24.072;2023-09-18T02:01:58;18.90;;;11.65;;
35877;SDS011;21982;49.804;24.072;2023-09-18T02:04:24;18.27;;;11.10;;
35877;SDS011;21982;49.804;24.072;2023-09-18T02:06:50;16.30;;;10.77;;
35877;SDS011;21982;49.804;24.072;2023-09-18T02:09:17;22.67;;;12.38;;
35877;SDS011;21982;49.804;24.072;2023-09-18T02:11:43;19.95;;;11.95;;
35877;SDS011;21982;49.804;24.072;2023-09-18T02:14:10;21.95;;;13.32;;
35877;SDS011;21982;49.804;24.072;2023-09-18T02:16:37;21.08;;;13.00;;
35877;SDS011;21982;49.804;24.072;2023-09-18T02:19:06;20.50;;;11.32;;
35877;SDS011;21982;49.804;24.072;2023-09-18T02:21:33;19.92;;;12.88;;
35877;SDS011;21982;49.804;24.072;2023-09-18T02:23:58;20.23;;;11.52;;
35877;SDS011;21982;49.804;24.072;2023-09-18T02:26:25;23.90;;;12.50;;
35877;SDS011;21982;49.804;24.072;2023-09-18T02:28:52;18.23;;;10.85;;
35877;SDS011;21982;49.804;24.072;2023-09-18T02:31:19;25.13;;;13.10;;
35877;SDS011;21982;49.804;24.072;2023-09-18T02:33:44;22.08;;;11.50;;
35877;SDS011;21982;49.804;24.072;2023-09-18T02:36:09;20.98;;;11.85;;
35877;SDS011;21982;49.804;24.072;2023-09-18T02:38:35;21.85;;;13.38;;
35877;SDS011;21982;49.804;24.072;2023-09-18T02:41:00;22.73;;;12.98;;
35877;SDS011;21982;49.804;24.072;2023-09-18T02:43:26;20.52;;;12.35;;
35877;SDS011;21982;49.804;24.072;2023-09-18T02:45:51;22.50;;;14.38;;
35877;SDS011;21982;49.804;24.072;2023-09-18T02:48:18;22.42;;;12.20;;
35877;SDS011;21982;49.804;24.072;2023-09-18T02:50:43;19.80;;;12.05;;
35877;SDS011;21982;49.804;24.072;2023-09-18T02:53:22;26.88;;;12.82;;
35877;SDS011;21982;49.804;24.072;2023-09-18T02:55:52;22.45;;;12.07;;
35877;SDS011;21982;49.804;24.072;2023-09-18T02:58:19;22.02;;;12.20;;
35877;SDS011;21982;49.804;24.072;2023-09-18T03:00:46;26.10;;;12.57;;
35877;SDS011;21982;49.804;24.072;2023-09-18T03:03:13;26.63;;;13.30;;
35877;SDS011;21982;49.804;24.072;2023-09-18T03:05:40;23.10;;;13.98;;
35877;SDS011;21982;49.804;24.072;2023-09-18T03:08:07;19.95;;;13.18;;
35877;SDS011;21982;49.804;24.072;2023-09-18T03:10:36;24.42;;;15.18;;
35877;SDS011;21982;49.804;24.072;2023-09-18T03:13:07;21.13;;;13.05;;
35877;SDS011;21982;49.804;24.072;2023-09-18T03:15:34;23.83;;;12.98;;
35877;SDS011;21982;49.804;24.072;2023-09-18T03:18:00;20.65;;;12.98;;
35877;SDS011;21982;49.804;24.072;2023-09-18T03:20:27;25.35;;;15.02;;
35877;SDS011;21982;49.804;24.072;2023-09-18T03:22:57;24.98;;;14.02;;
35877;SDS011;21982;49.804;24.072;2023-09-18T03:25:24;25.10;;;13.57;;
35877;SDS011;21982;49.804;24.072;2023-09-18T03:27:54;23.73;;;11.98;;
35877;SDS011;21982;49.804;24.072;2023-09-18T03:30:21;29.25;;;13.63;;
35877;SDS011;21982;49.804;24.072;2023-09-18T03:32:48;24.13;;;12.32;;
35877;SDS011;21982;49.804;24.072;2023-09-18T03:35:14;28.15;;;14.27;;
35877;SDS011;21982;49.804;24.072;2023-09-18T03:37:47;26.98;;;13.25;;
35877;SDS011;21982;49.804;24.072;2023-09-18T03:40:13;41.13;;;16.33;;
35877;SDS011;21982;49.804;24.072;2023-09-18T03:42:39;32.80;;;15.60;;
35877;SDS011;21982;49.804;24.072;2023-09-18T03:45:05;28.17;;;15.05;;
35877;SDS011;21982;49.804;24.072;2023-09-18T03:47:32;31.10;;;15.82;;
35877;SDS011;21982;49.804;24.072;2023-09-18T03:49:58;29.58;;;14.90;;
35877;SDS011;21982;49.804;24.072;2023-09-18T03:52:24;32.70;;;15.50;;
35877;SDS011;21982;49.804;24.072;2023-09-18T03:54:49;33.05;;;17.00;;
35877;SDS011;21982;49.804;24.072;2023-09-18T03:57:14;33.50;;;14.60;;
35877;SDS011;21982;49.804;24.072;2023-09-18T03:59:40;29.92;;;14.30;;
35877;SDS011;21982;49.804;24.072;2023-09-18T04:02:05;30.50;;;15.57;;
35877;SDS011;21982;49.804;24.072;2023-09-18T04:04:31;29.50;;;16.25;;
35877;SDS011;21982;49.804;24.072;2023-09-18T04:06:57;27.38;;;14.77;;
35877;SDS011;21982;49.804;24.072;2023-09-18T04:09:22;26.85;;;14.27;;
35877;SDS011;21982;49.804;24.072;2023-09-18T04:11:48;32.35;;;14.93;;
35877;SDS011;21982;49.804;24.072;2023-09-18T04:14:13;31.20;;;15.65;;
35877;SDS011;21982;49.804;24.072;2023-09-18T04:16:39;27.58;;;15.15;;
35877;SDS011;21982;49.804;24.072;2023-09-18T04:19:07;27.63;;;15.88;;
35877;SDS011;21982;49.804;24.072;2023-09-18T04:21:33;27.60;;;15.07;;
35877;SDS011;21982;49.804;24.072;2023-09-18T04:23:58;30.02;;;14.95;;
35877;SDS011;21982;49.804;24.072;2023-09-18T04:26:24;24.38;;;15.10;;
35877;SDS011;21982;49.804;24.072;2023-09-18T04:28:54;30.02;;;16.55;;
35877;SDS011;21982;49.804;24.072;2023-09-18T04:31:20;35.08;;;18.38;;
35877;SDS011;21982;49.804;24.072;2023-09-18T04:33:45;31.33;;;16.83;;
35877;SDS011;21982;49.804;24.072;2023-09-18T04:36:10;30.73;;;16.48;;
35877;SDS011;21982;49.804;24.072;2023-09-18T04:38:36;31.33;;;17.17;;
35877;SDS011;21982;49.804;24.072;2023-09-18T04:41:01;29.33;;;16.85;;
35877;SDS011;21982;49.804;24.072;2023-09-18T04:43:27;26.27;;;16.58;;
35877;SDS011;21982;49.804;24.072;2023-09-18T04:45:54;25.30;;;14.55;;
35877;SDS011;21982;49.804;24.072;2023-09-18T04:48:20;23.45;;;13.20;;
35877;SDS011;21982;49.804;24.072;2023-09-18T04:50:45;24.23;;;12.75;;
35877;SDS011;21982;49.804;24.072;2023-09-18T04:53:12;19.80;;;12.23;;
35877;SDS011;21982;49.804;24.072;2023-09-18T04:55:38;19.85;;;12.18;;
35877;SDS011;21982;49.804;24.072;2023-09-18T04:58:03;15.18;;;9.88;;
35877;SDS011;21982;49.804;24.072;2023-09-18T05:00:30;17.80;;;9.32;;
35877;SDS011;21982;49.804;24.072;2023-09-18T05:02:57;18.20;;;10.32;;
35877;SDS011;21982;49.804;24.072;2023-09-18T05:05:25;16.85;;;10.13;;
35877;SDS011;21982;49.804;24.072;2023-09-18T05:07:50;16.73;;;9.40;;
35877;SDS011;21982;49.804;24.072;2023-09-18T05:10:16;15.43;;;10.27;;
35877;SDS011;21982;49.804;24.072;2023-09-18T05:12:42;16.85;;;10.85;;
35877;SDS011;21982;49.804;24.072;2023-09-18T05:15:07;20.77;;;11.85;;
35877;SDS011;21982;49.804;24.072;2023-09-18T05:17:47;19.70;;;10.82;;
35877;SDS011;21982;49.804;24.072;2023-09-18T05:20:17;19.65;;;11.35;;
35877;SDS011;21982;49.804;24.072;2023-09-18T05:22:43;20.30;;;11.27;;
35877;SDS011;21982;49.804;24.072;2023-09-18T05:25:09;17.85;;;10.07;;
35877;SDS011;21982;49.804;24.072;2023-09-18T05:27:35;23.80;;;11.60;;
35877;SDS011;21982;49.804;24.072;2023-09-18T05:30:09;22.58;;;10.98;;
35877;SDS011;21982;49.804;24.072;2023-09-18T05:32:35;21.05;;;10.40;;
35877;SDS011;21982;49.804;24.072;2023-09-18T05:35:01;16.55;;;10.20;;
35877;SDS011;21982;49.804;24.072;2023-09-18T05:37:30;17.92;;;9.75;;
35877;SDS011;21982;49.804;24.072;2023-09-18T05:39:55;21.35;;;9.73;;
35877;SDS011;21982;49.804;24.072;2023-09-18T05:42:20;18.58;;;9.77;;
35877;SDS011;21982;49.804;24.072;2023-09-18T05:44:46;20.08;;;9.88;;
35877;SDS011;21982;49.804;24.072;2023-09-18T05:47:12;19.70;;;10.85;;
35877;SDS011;21982;49.804;24.072;2023-09-18T05:49:37;21.23;;;10.38;;
35877;SDS011;21982;49.804;24.072;2023-09-18T05:52:03;21.08;;;10.75;;
35877;SDS011;21982;49.804;24.072;2023-09-18T05:54:28;18.90;;;10.93;;
35877;SDS011;21982;49.804;24.072;2023-09-18T05:56:54;18.63;;;10.60;;
35877;SDS011;21982;49.804;24.072;2023-09-18T05:59:19;19.58;;;9.68;;
35877;SDS011;21982;49.804;24.072;2023-09-18T06:01:45;20.33;;;9.15;;
35877;SDS011;21982;49.804;24.072;2023-09-18T06:04:10;16.55;;;8.90;;
35877;SDS011;21982;49.804;24.072;2023-09-18T06:06:37;18.40;;;8.18;;
35877;SDS011;21982;49.804;24.072;2023-09-18T06:09:03;17.85;;;9.13;;
35877;SDS011;21982;49.804;24.072;2023-09-18T06:11:28;17.27;;;9.80;;
35877;SDS011;21982;49.804;24.072;2023-09-18T06:13:54;16.25;;;8.85;;
35877;SDS011;21982;49.804;24.072;2023-09-18T06:16:19;16.50;;;9.35;;
35877;SDS011;21982;49.804;24.072;2023-09-18T06:18:44;13.30;;;8.68;;
35877;SDS011;21982;49.804;24.072;2023-09-18T06:21:10;17.35;;;8.88;;
35877;SDS011;21982;49.804;24.072;2023-09-18T06:23:35;24.20;;;8.52;;
35877;SDS011;21982;49.804;24.072;2023-09-18T06:26:01;14.00;;;9.05;;
35877;SDS011;21982;49.804;24.072;2023-09-18T06:28:26;16.38;;;9.40;;
35877;SDS011;21982;49.804;24.072;2023-09-18T06:30:52;18.42;;;8.77;;
35877;SDS011;21982;49.804;24.072;2023-09-18T06:33:19;16.15;;;8.90;;
35877;SDS011;21982;49.804;24.072;2023-09-18T06:35:44;18.48;;;9.05;;
35877;SDS011;21982;49.804;24.072;2023-09-18T06:38:10;12.60;;;6.95;;
35877;SDS011;21982;49.804;24.072;2023-09-18T06:40:37;14.00;;;7.60;;
35877;SDS011;21982;49.804;24.072;2023-09-18T06:43:04;11.23;;;6.80;;
35877;SDS011;21982;49.804;24.072;2023-09-18T06:45:31;12.05;;;7.03;;
35877;SDS011;21982;49.804;24.072;2023-09-18T06:47:58;11.98;;;6.50;;
35877;SDS011;21982;49.804;24.072;2023-09-18T06:50:25;15.15;;;6.15;;
35877;SDS011;21982;49.804;24.072;2023-09-18T06:52:50;10.23;;;5.53;;
35877;SDS011;21982;49.804;24.072;2023-09-18T06:55:16;10.48;;;5.90;;
35877;SDS011;21982;49.804;24.072;2023-09-18T06:57:42;11.18;;;5.78;;
35877;SDS011;21982;49.804;24.072;2023-09-18T07:00:07;8.50;;;4.95;;
35877;SDS011;21982;49.804;24.072;2023-09-18T07:02:33;14.05;;;6.05;;
35877;SDS011;21982;49.804;24.072;2023-09-18T07:04:59;12.10;;;5.18;;
35877;SDS011;21982;49.804;24.072;2023-09-18T07:07:24;13.73;;;5.63;;
35877;SDS011;21982;49.804;24.072;2023-09-18T07:09:53;9.32;;;5.15;;
35877;SDS011;21982;49.804;24.072;2023-09-18T07:12:18;10.13;;;5.20;;
35877;SDS011;21982;49.804;24.072;2023-09-18T07:14:44;13.40;;;5.57;;
35877;SDS011;21982;49.804;24.072;2023-09-18T07:17:10;12.95;;;5.32;;
35877;SDS011;21982;49.804;24.072;2023-09-18T07:19:36;9.40;;;5.60;;
35877;SDS011;21982;49.804;24.072;2023-09-18T07:22:01;13.63;;;4.60;;
35877;SDS011;21982;49.804;24.072;2023-09-18T07:24:27;12.98;;;5.70;;
35877;SDS011;21982;49.804;24.072;2023-09-18T07:26:52;10.63;;;4.53;;
35877;SDS011;21982;49.804;24.072;2023-09-18T07:29:18;11.05;;;5.00;;
35877;SDS011;21982;49.804;24.072;2023-09-18T07:31:45;9.43;;;4.70;;
35877;SDS011;21982;49.804;24.072;2023-09-18T07:34:11;9.30;;;4.82;;
35877;SDS011;21982;49.804;24.072;2023-09-18T07:36:38;7.22;;;4.07;;
35877;SDS011;21982;49.804;24.072;2023-09-18T07:39:04;12.70;;;4.35;;
35877;SDS011;21982;49.804;24.072;2023-09-18T07:41:30;8.10;;;4.07;;
35877;SDS011;21982;49.804;24.072;2023-09-18T07:43:56;10.02;;;4.55;;
35877;SDS011;21982;49.804;24.072;2023-09-18T07:46:23;6.80;;;4.70;;
35877;SDS011;21982;49.804;24.072;2023-09-18T07:48:49;7.53;;;4.53;;
35877;SDS011;21982;49.804;24.072;2023-09-18T07:51:14;10.48;;;5.30;;
35877;SDS011;21982;49.804;24.072;2023-09-18T07:53:41;8.52;;;4.35;;
35877;SDS011;21982;49.804;24.072;2023-09-18T07:56:07;9.60;;;4.70;;
35877;SDS011;21982;49.804;24.072;2023-09-18T07:58:34;9.73;;;4.75;;
35877;SDS011;21982;49.804;24.072;2023-09-18T08:01:03;8.73;;;4.75;;
35877;SDS011;21982;49.804;24.072;2023-09-18T08:03:30;10.48;;;4.90;;
35877;SDS011;21982;49.804;24.072;2023-09-18T08:05:56;8.82;;;4.65;;
35877;SDS011;21982;49.804;24.072;2023-09-18T08:08:22;10.65;;;4.55;;
35877;SDS011;21982;49.804;24.072;2023-09-18T08:10:51;9.10;;;4.85;;
35877;SDS011;21982;49.804;24.072;2023-09-18T08:13:18;10.18;;;5.10;;
35877;SDS011;21982;49.804;24.072;2023-09-18T08:15:46;7.90;;;3.50;;
35877;SDS011;21982;49.804;24.072;2023-09-18T08:18:11;9.48;;;4.32;;
35877;SDS011;21982;49.804;24.072;2023-09-18T08:20:44;12.75;;;4.93;;
35877;SDS011;21982;49.804;24.072;2023-09-18T08:23:10;7.82;;;4.60;;
35877;SDS011;21982;49.804;24.072;2023-09-18T08:25:36;8.95;;;4.07;;
35877;SDS011;21982;49.804;24.072;2023-09-18T08:28:03;6.95;;;4.30;;
35877;SDS011;21982;49.804;24.072;2023-09-18T08:30:29;5.85;;;3.67;;
35877;SDS011;21982;49.804;24.072;2023-09-18T08:32:55;8.57;;;4.35;;
35877;SDS011;21982;49.804;24.072;2023-09-18T08:35:23;13.25;;;5.68;;
35877;SDS011;21982;49.804;24.072;2023-09-18T08:37:53;9.68;;;4.50;;
35877;SDS011;21982;49.804;24.072;2023-09-18T08:40:18;9.00;;;4.15;;
35877;SDS011;21982;49.804;24.072;2023-09-18T08:42:46;8.52;;;4.32;;
35877;SDS011;21982;49.804;24.072;2023-09-18T08:45:20;7.10;;;4.13;;
35877;SDS011;21982;49.804;24.072;2023-09-18T08:47:50;10.60;;;4.97;;
35877;SDS011;21982;49.804;24.072;2023-09-18T08:50:17;6.78;;;3.65;;
35877;SDS011;21982;49.804;24.072;2023-09-18T08:52:43;14.57;;;6.05;;
35877;SDS011;21982;49.804;24.072;2023-09-18T08:55:10;11.60;;;5.60;;
35877;SDS011;21982;49.804;24.072;2023-09-18T08:57:38;10.15;;;5.05;;
35877;SDS011;21982;49.804;24.072;2023-09-18T09:00:06;10.10;;;5.07;;
35877;SDS011;21982;49.804;24.072;2023-09-18T09:02:33;5.80;;;3.85;;
35877;SDS011;21982;49.804;24.072;2023-09-18T09:04:59;8.88;;;4.85;;
35877;SDS011;21982;49.804;24.072;2023-09-18T09:07:25;8.02;;;4.50;;
35877;SDS011;21982;49.804;24.072;2023-09-18T09:09:51;7.35;;;4.40;;
35877;SDS011;21982;49.804;24.072;2023-09-18T09:12:43;7.38;;;4.18;;
35877;SDS011;21982;49.804;24.072;2023-09-18T09:15:42;8.15;;;4.50;;
35877;SDS011;21982;49.804;24.072;2023-09-18T09:18:13;9.07;;;4.10;;
35877;SDS011;21982;49.804;24.072;2023-09-18T09:21:01;7.18;;;5.10;;
35877;SDS011;21982;49.804;24.072;2023-09-18T09:23:43;7.45;;;4.32;;
35877;SDS011;21982;49.804;24.072;2023-09-18T09:26:14;10.05;;;4.47;;
35877;SDS011;21982;49.804;24.072;2023-09-18T09:28:42;8.95;;;5.13;;
35877;SDS011;21982;49.804;24.072;2023-09-18T09:31:08;8.57;;;4.97;;
35877;SDS011;21982;49.804;24.072;2023-09-18T09:33:35;9.20;;;4.90;;
35877;SDS011;21982;49.804;24.072;2023-09-18T09:36:04;8.50;;;4.43;;
35877;SDS011;21982;49.804;24.072;2023-09-18T09:38:31;8.30;;;4.38;;
35877;SDS011;21982;49.804;24.072;2023-09-18T09:40:59;8.82;;;4.68;;
35877;SDS011;21982;49.804;24.072;2023-09-18T09:43:34;6.65;;;4.05;;
35877;SDS011;21982;49.804;24.072;2023-09-18T09:46:00;8.32;;;4.60;;
35877;SDS011;21982;49.804;24.072;2023-09-18T09:48:28;6.80;;;4.97;;
35877;SDS011;21982;49.804;24.072;2023-09-18T09:50:59;8.60;;;4.95;;
35877;SDS011;21982;49.804;24.072;2023-09-18T09:53:44;8.52;;;4.45;;
35877;SDS011;21982;49.804;24.072;2023-09-18T09:56:13;7.43;;;4.65;;
35877;SDS011;21982;49.804;24.072;2023-09-18T09:58:39;7.20;;;4.40;;
35877;SDS011;21982;49.804;24.072;2023-09-18T10:01:09;8.20;;;4.68;;
35877;SDS011;21982;49.804;24.072;2023-09-18T10:03:40;8.73;;;4.55;;
35877;SDS011;21982;49.804;24.072;2023-09-18T10:06:06;8.60;;;4.68;;
35877;SDS011;21982;49.804;24.072;2023-09-18T10:08:34;6.88;;;4.40;;
35877;SDS011;21982;49.804;24.072;2023-09-18T10:11:06;8.38;;;4.63;;
35877;SDS011;21982;49.804;24.072;2023-09-18T10:13:46;10.60;;;4.75;;
35877;SDS011;21982;49.804;24.072;2023-09-18T10:16:19;10.27;;;4.50;;
35877;SDS011;21982;49.804;24.072;2023-09-18T10:22:00;7.15;;;4.28;;
35877;SDS011;21982;49.804;24.072;2023-09-18T10:24:36;7.75;;;4.75;;
35877;SDS011;21982;49.804;24.072;2023-09-18T10:27:14;7.03;;;4.47;;
35877;SDS011;21982;49.804;24.072;2023-09-18T10:29:45;8.85;;;4.68;;
35877;SDS011;21982;49.804;24.072;2023-09-18T10:32:17;9.07;;;4.70;;
35877;SDS011;21982;49.804;24.072;2023-09-18T10:34:48;10.23;;;4.30;;
35877;SDS011;21982;49.804;24.072;2023-09-18T10:37:15;9.13;;;4.10;;
35877;SDS011;21982;49.804;24.072;2023-09-18T10:39:41;7.18;;;4.43;;
35877;SDS011;21982;49.804;24.072;2023-09-18T10:42:11;6.43;;;4.13;;
35877;SDS011;21982;49.804;24.072;2023-09-18T10:44:39;7.97;;;3.60;;
35877;SDS011;21982;49.804;24.072;2023-09-18T10:47:05;8.73;;;5.18;;
35877;SDS011;21982;49.804;24.072;2023-09-18T10:49:34;7.40;;;4.45;;
35877;SDS011;21982;49.804;24.072;2023-09-18T10:52:00;8.77;;;4.05;;
35877;SDS011;21982;49.804;24.072;2023-09-18T10:54:26;7.30;;;3.70;;
35877;SDS011;21982;49.804;24.072;2023-09-18T10:56:53;6.75;;;3.67;;
35877;SDS011;21982;49.804;24.072;2023-09-18T10:59:21;6.00;;;3.42;;
35877;SDS011;21982;49.804;24.072;2023-09-18T11:01:47;6.38;;;3.40;;
35877;SDS011;21982;49.804;24.072;2023-09-18T11:04:13;13.32;;;4.03;;
35877;SDS011;21982;49.804;24.072;2023-09-18T11:09:24;6.43;;;3.80;;
35877;SDS011;21982;49.804;24.072;2023-09-18T11:14:23;7.28;;;3.33;;
35877;SDS011;21982;49.804;24.072;2023-09-18T11:17:06;8.02;;;4.13;;
35877;SDS011;21982;49.804;24.072;2023-09-18T11:19:55;6.47;;;3.10;;
35877;SDS011;21982;49.804;24.072;2023-09-18T11:22:59;5.15;;;2.97;;
35877;SDS011;21982;49.804;24.072;2023-09-18T11:25:40;5.80;;;2.88;;
35877;SDS011;21982;49.804;24.072;2023-09-18T11:28:13;8.82;;;4.00;;
35877;SDS011;21982;49.804;24.072;2023-09-18T11:30:52;8.00;;;3.40;;
35877;SDS011;21982;49.804;24.072;2023-09-18T11:33:36;6.40;;;3.40;;
35877;SDS011;21982;49.804;24.072;2023-09-18T11:36:07;20.65;;;4.72;;
35877;SDS011;21982;49.804;24.072;2023-09-18T11:38:47;6.72;;;3.20;;
35877;SDS011;21982;49.804;24.072;2023-09-18T11:41:27;6.40;;;3.22;;
35877;SDS011;21982;49.804;24.072;2023-09-18T11:44:39;6.03;;;3.22;;
35877;SDS011;21982;49.804;24.072;2023-09-18T11:46:39;4.93;;;3.13;;
35877;SDS011;21982;49.804;24.072;2023-09-18T11:49:06;6.20;;;3.22;;
35877;SDS011;21982;49.804;24.072;2023-09-18T11:51:33;4.90;;;2.95;;
35877;SDS011;21982;49.804;24.072;2023-09-18T11:54:00;6.38;;;3.28;;
35877;SDS011;21982;49.804;24.072;2023-09-18T11:56:28;6.57;;;3.08;;
35877;SDS011;21982;49.804;24.072;2023-09-18T11:58:54;6.07;;;2.72;;
35877;SDS011;21982;49.804;24.072;2023-09-18T12:01:20;8.50;;;3.50;;
35877;SDS011;21982;49.804;24.072;2023-09-18T12:03:52;5.20;;;3.10;;
35877;SDS011;21982;49.804;24.072;2023-09-18T12:06:19;4.68;;;2.80;;
35877;SDS011;21982;49.804;24.072;2023-09-18T12:08:45;9.30;;;3.33;;
35877;SDS011;21982;49.804;24.072;2023-09-18T12:11:11;12.55;;;3.75;;
35877;SDS011;21982;49.804;24.072;2023-09-18T12:13:42;5.28;;;3.10;;
35877;SDS011;21982;49.804;24.072;2023-09-18T12:16:08;5.97;;;2.88;;
35877;SDS011;21982;49.804;24.072;2023-09-18T12:18:34;6.38;;;3.20;;
35877;SDS011;21982;49.804;24.072;2023-09-18T12:21:05;5.57;;;2.85;;
35877;SDS011;21982;49.804;24.072;2023-09-18T12:23:37;6.10;;;2.88;;
35877;SDS011;21982;49.804;24.072;2023-09-18T12:26:04;10.13;;;3.65;;
35877;SDS011;21982;49.804;24.072;2023-09-18T12:28:32;8.15;;;2.72;;
35877;SDS011;21982;49.804;24.072;2023-09-18T12:31:00;5.07;;;2.80;;
35877;SDS011;21982;49.804;24.072;2023-09-18T12:33:30;5.97;;;2.58;;
35877;SDS011;21982;49.804;24.072;2023-09-18T12:36:00;5.03;;;2.63;;
35877;SDS011;21982;49.804;24.072;2023-09-18T12:38:25;5.80;;;2.30;;
35877;SDS011;21982;49.804;24.072;2023-09-18T12:40:54;8.95;;;3.20;;
35877;SDS011;21982;49.804;24.072;2023-09-18T12:43:20;7.20;;;2.58;;
35877;SDS011;21982;49.804;24.072;2023-09-18T12:45:47;4.10;;;2.47;;
35877;SDS011;21982;49.804;24.072;2023-09-18T12:48:14;5.72;;;2.95;;
35877;SDS011;21982;49.804;24.072;2023-09-18T12:50:40;6.00;;;2.88;;
35877;SDS011;21982;49.804;24.072;2023-09-18T12:53:07;7.63;;;3.25;;
35877;SDS011;21982;49.804;24.072;2023-09-18T12:55:36;7.78;;;3.78;;
35877;SDS011;21982;49.804;24.072;2023-09-18T12:58:02;5.60;;;2.20;;
35877;SDS011;21982;49.804;24.072;2023-09-18T13:00:34;6.45;;;2.67;;
35877;SDS011;21982;49.804;24.072;2023-09-18T13:03:00;5.93;;;2.90;;
35877;SDS011;21982;49.804;24.072;2023-09-18T13:05:29;7.07;;;2.38;;
35877;SDS011;21982;49.804;24.072;2023-09-18T13:08:01;5.18;;;2.88;;
35877;SDS011;21982;49.804;24.072;2023-09-18T13:10:27;6.72;;;2.95;;
35877;SDS011;21982;49.804;24.072;2023-09-18T13:12:53;6.03;;;3.35;;
35877;SDS011;21982;49.804;24.072;2023-09-18T13:15:27;5.63;;;3.08;;
35877;SDS011;21982;49.804;24.072;2023-09-18T13:17:55;6.10;;;2.53;;
35877;SDS011;21982;49.804;24.072;2023-09-18T13:20:28;6.03;;;3.10;;
35877;SDS011;21982;49.804;24.072;2023-09-18T13:22:55;5.18;;;2.35;;
35877;SDS011;21982;49.804;24.072;2023-09-18T13:25:23;7.22;;;2.47;;
35877;SDS011;21982;49.804;24.072;2023-09-18T13:27:50;4.82;;;2.20;;
35877;SDS011;21982;49.804;24.072;2023-09-18T13:30:17;4.43;;;2.10;;
35877;SDS011;21982;49.804;24.072;2023-09-18T13:32:46;5.82;;;3.28;;
35877;SDS011;21982;49.804;24.072;2023-09-18T13:35:15;6.00;;;2.67;;
35877;SDS011;21982;49.804;24.072;2023-09-18T13:37:42;6.60;;;2.80;;
35877;SDS011;21982;49.804;24.072;2023-09-18T13:40:07;4.55;;;2.70;;
35877;SDS011;21982;49.804;24.072;2023-09-18T13:42:40;7.65;;;2.80;;
35877;SDS011;21982;49.804;24.072;2023-09-18T13:45:05;5.05;;;2.55;;
35877;SDS011;21982;49.804;24.072;2023-09-18T13:47:32;5.68;;;2.92;;
35877;SDS011;21982;49.804;24.072;2023-09-18T13:50:01;4.72;;;2.50;;
35877;SDS011;21982;49.804;24.072;2023-09-18T13:52:31;8.23;;;3.03;;
35877;SDS011;21982;49.804;24.072;2023-09-18T13:54:59;7.60;;;2.60;;
35877;SDS011;21982;49.804;24.072;2023-09-18T13:57:25;7.25;;;3.28;;
35877;SDS011;21982;49.804;24.072;2023-09-18T13:59:51;6.70;;;3.33;;
35877;SDS011;21982;49.804;24.072;2023-09-18T14:02:17;5.45;;;2.60;;
35877;SDS011;21982;49.804;24.072;2023-09-18T14:04:43;15.23;;;3.35;;
35877;SDS011;21982;49.804;24.072;2023-09-18T14:07:09;7.55;;;3.25;;
35877;SDS011;21982;49.804;24.072;2023-09-18T14:09:35;4.95;;;3.00;;
35877;SDS011;21982;49.804;24.072;2023-09-18T14:12:01;6.40;;;3.03;;
35877;SDS011;21982;49.804;24.072;2023-09-18T14:14:33;8.05;;;3.70;;
35877;SDS011;21982;49.804;24.072;2023-09-18T14:17:00;9.93;;;3.30;;
35877;SDS011;21982;49.804;24.072;2023-09-18T14:19:25;12.55;;;3.75;;
35877;SDS011;21982;49.804;24.072;2023-09-18T14:21:50;12.80;;;5.35;;
35877;SDS011;21982;49.804;24.072;2023-09-18T14:24:17;8.20;;;2.80;;
35877;SDS011;21982;49.804;24.072;2023-09-18T14:26:49;17.92;;;7.55;;
35877;SDS011;21982;49.804;24.072;2023-09-18T14:29:15;13.68;;;5.78;;
35877;SDS011;21982;49.804;24.072;2023-09-18T14:31:41;9.10;;;4.45;;
35877;SDS011;21982;49.804;24.072;2023-09-18T14:34:06;12.18;;;3.92;;
35877;SDS011;21982;49.804;24.072;2023-09-18T14:36:33;6.50;;;3.55;;
35877;SDS011;21982;49.804;24.072;2023-09-18T14:39:01;9.75;;;3.55;;